sensor_id;sensor_type;location;lat;lon;timestamp;P1;durP1;ratioP1;P2;durP2;ratioP2
26598;SDS011;14240;51.064;16.612;2023-09-30T19:26:54;61.33;;;29.60;;
26598;SDS011;14240;51.064;16.612;2023-09-30T19:29:20;60.88;;;27.92;;
26598;SDS011;14240;51.064;16.612;2023-09-30T19:31:45;34.70;;;13.85;;
26598;SDS011;14240;51.064;16.612;2023-09-30T19:34:12;71.90;;;29.83;;
26598;SDS011;14240;51.064;16.612;2023-09-30T19:36:37;100.30;;;42.13;;
26598;SDS011;14240;51.064;16.612;2023-09-30T19:39:03;126.38;;;50.53;;
26598;SDS011;14240;51.064;16.612;2023-09-30T19:41:29;192.55;;;75.07;;
26598;SDS011;14240;51.064;16.612;2023-09-30T19:43:55;148.82;;;60.17;;
26598;SDS011;14240;51.064;16.612;2023-09-30T19:46:21;118.88;;;47.58;;
26598;SDS011;14240;51.064;16.612;2023-09-30T19:48:49;87.63;;;36.40;;
26598;SDS011;14240;51.064;16.612;2023-09-30T19:51:21;43.95;;;21.13;;
26598;SDS011;14240;51.064;16.612;2023-09-30T19:53:48;32.35;;;14.13;;
26598;SDS011;14240;51.064;16.612;2023-09-30T19:56:14;28.08;;;9.70;;
26598;SDS011;14240;51.064;16.612;2023-09-30T19:58:40;19.20;;;7.93;;
26598;SDS011;14240;51.064;16.612;2023-09-30T20:01:06;20.50;;;9.40;;
26598;SDS011;14240;51.064;16.612;2023-09-30T20:03:33;16.27;;;7.07;;
26598;SDS011;14240;51.064;16.612;2023-09-30T20:06:00;18.38;;;7.80;;
26598;SDS011;14240;51.064;16.612;2023-09-30T20:08:27;19.23;;;6.55;;
26598;SDS011;14240;51.064;16.612;2023-09-30T20:10:58;19.27;;;6.70;;
26598;SDS011;14240;51.064;16.612;2023-09-30T20:13:24;16.27;;;6.43;;
26598;SDS011;14240;51.064;16.612;2023-09-30T20:15:50;18.13;;;7.57;;
26598;SDS011;14240;51.064;16.612;2023-09-30T20:18:15;14.32;;;7.03;;
26598;SDS011;14240;51.064;16.612;2023-09-30T20:20:41;19.45;;;7.13;;
26598;SDS011;14240;51.064;16.612;2023-09-30T20:23:07;18.02;;;6.20;;
26598;SDS011;14240;51.064;16.612;2023-09-30T20:25:33;17.58;;;7.20;;
26598;SDS011;14240;51.064;16.612;2023-09-30T20:27:59;63.65;;;22.88;;
26598;SDS011;14240;51.064;16.612;2023-09-30T20:30:30;65.13;;;21.52;;
26598;SDS011;14240;51.064;16.612;2023-09-30T20:32:55;65.60;;;20.58;;
26598;SDS011;14240;51.064;16.612;2023-09-30T20:35:21;48.72;;;17.33;;
26598;SDS011;14240;51.064;16.612;2023-09-30T20:37:48;48.60;;;15.65;;
26598;SDS011;14240;51.064;16.612;2023-09-30T20:40:14;77.05;;;28.83;;
26598;SDS011;14240;51.064;16.612;2023-09-30T20:42:40;64.88;;;25.88;;
26598;SDS011;14240;51.064;16.612;2023-09-30T20:45:06;55.55;;;23.52;;
26598;SDS011;14240;51.064;16.612;2023-09-30T20:47:32;54.85;;;24.55;;
26598;SDS011;14240;51.064;16.612;2023-09-30T20:49:58;65.75;;;27.48;;
26598;SDS011;14240;51.064;16.612;2023-09-30T20:52:24;103.78;;;46.90;;
26598;SDS011;14240;51.064;16.612;2023-09-30T20:54:49;122.40;;;49.85;;
26598;SDS011;14240;51.064;16.612;2023-09-30T20:57:16;156.63;;;63.75;;
26598;SDS011;14240;51.064;16.612;2023-09-30T20:59:42;144.48;;;59.00;;
26598;SDS011;14240;51.064;16.612;2023-09-30T21:02:08;180.55;;;60.63;;
26598;SDS011;14240;51.064;16.612;2023-09-30T21:04:34;150.07;;;55.20;;
26598;SDS011;14240;51.064;16.612;2023-09-30T21:06:59;113.75;;;44.70;;
26598;SDS011;14240;51.064;16.612;2023-09-30T21:09:25;87.80;;;32.70;;
26598;SDS011;14240;51.064;16.612;2023-09-30T21:11:51;79.18;;;34.20;;
26598;SDS011;14240;51.064;16.612;2023-09-30T21:14:18;78.63;;;30.45;;
26598;SDS011;14240;51.064;16.612;2023-09-30T21:16:44;135.38;;;67.22;;
26598;SDS011;14240;51.064;16.612;2023-09-30T21:19:10;83.40;;;41.97;;
26598;SDS011;14240;51.064;16.612;2023-09-30T21:21:36;40.03;;;21.42;;
26598;SDS011;14240;51.064;16.612;2023-09-30T21:24:04;36.53;;;17.52;;
26598;SDS011;14240;51.064;16.612;2023-09-30T21:26:30;26.05;;;12.90;;
26598;SDS011;14240;51.064;16.612;2023-09-30T21:28:56;22.48;;;12.32;;
26598;SDS011;14240;51.064;16.612;2023-09-30T21:31:22;17.60;;;8.00;;
26598;SDS011;14240;51.064;16.612;2023-09-30T21:33:48;15.75;;;6.63;;
26598;SDS011;14240;51.064;16.612;2023-09-30T21:36:14;15.80;;;6.20;;
26598;SDS011;14240;51.064;16.612;2023-09-30T21:38:40;11.25;;;5.90;;
26598;SDS011;14240;51.064;16.612;2023-09-30T21:41:10;16.02;;;5.88;;
26598;SDS011;14240;51.064;16.612;2023-09-30T21:43:37;20.90;;;6.68;;
26598;SDS011;14240;51.064;16.612;2023-09-30T21:46:03;13.13;;;5.00;;
26598;SDS011;14240;51.064;16.612;2023-09-30T21:48:29;14.07;;;4.95;;
26598;SDS011;14240;51.064;16.612;2023-09-30T21:50:55;13.15;;;5.18;;
26598;SDS011;14240;51.064;16.612;2023-09-30T21:53:22;13.00;;;5.10;;
26598;SDS011;14240;51.064;16.612;2023-09-30T21:55:49;14.38;;;5.05;;
26598;SDS011;14240;51.064;16.612;2023-09-30T21:58:14;18.30;;;5.63;;
26598;SDS011;14240;51.064;16.612;2023-09-30T22:00:40;11.93;;;4.60;;
26598;SDS011;14240;51.064;16.612;2023-09-30T22:03:07;11.43;;;4.78;;
26598;SDS011;14240;51.064;16.612;2023-09-30T22:05:37;15.40;;;4.88;;
26598;SDS011;14240;51.064;16.612;2023-09-30T22:08:04;12.90;;;5.15;;
26598;SDS011;14240;51.064;16.612;2023-09-30T22:10:30;14.27;;;5.47;;
26598;SDS011;14240;51.064;16.612;2023-09-30T22:12:55;18.30;;;6.03;;
26598;SDS011;14240;51.064;16.612;2023-09-30T22:15:21;14.32;;;6.50;;
26598;SDS011;14240;51.064;16.612;2023-09-30T22:17:48;16.52;;;6.57;;
26598;SDS011;14240;51.064;16.612;2023-09-30T22:20:14;15.60;;;6.07;;
26598;SDS011;14240;51.064;16.612;2023-09-30T22:22:40;14.52;;;6.40;;
26598;SDS011;14240;51.064;16.612;2023-09-30T22:25:07;16.17;;;6.35;;
26598;SDS011;14240;51.064;16.612;2023-09-30T22:27:34;15.13;;;5.82;;
26598;SDS011;14240;51.064;16.612;2023-09-30T22:29:59;13.35;;;6.10;;
26598;SDS011;14240;51.064;16.612;2023-09-30T22:32:26;17.05;;;6.13;;
26598;SDS011;14240;51.064;16.612;2023-09-30T22:34:51;16.90;;;7.00;;
26598;SDS011;14240;51.064;16.612;2023-09-30T22:37:17;17.98;;;7.60;;
26598;SDS011;14240;51.064;16.612;2023-09-30T22:39:43;13.05;;;5.55;;
26598;SDS011;14240;51.064;16.612;2023-09-30T22:42:10;12.15;;;5.70;;
26598;SDS011;14240;51.064;16.612;2023-09-30T22:44:37;21.70;;;5.85;;
26598;SDS011;14240;51.064;16.612;2023-09-30T22:47:03;18.30;;;7.80;;
26598;SDS011;14240;51.064;16.612;2023-09-30T22:49:29;30.83;;;10.57;;
26598;SDS011;14240;51.064;16.612;2023-09-30T22:51:55;17.75;;;6.50;;
26598;SDS011;14240;51.064;16.612;2023-09-30T22:54:20;18.20;;;6.75;;
26598;SDS011;14240;51.064;16.612;2023-09-30T22:56:47;23.27;;;7.38;;
26598;SDS011;14240;51.064;16.612;2023-09-30T22:59:12;15.70;;;6.85;;
26598;SDS011;14240;51.064;16.612;2023-09-30T23:01:38;17.92;;;9.40;;
26598;SDS011;14240;51.064;16.612;2023-09-30T23:04:04;43.38;;;22.92;;
26598;SDS011;14240;51.064;16.612;2023-09-30T23:06:30;106.35;;;67.63;;
26598;SDS011;14240;51.064;16.612;2023-09-30T23:08:57;87.35;;;63.83;;
26598;SDS011;14240;51.064;16.612;2023-09-30T23:11:23;69.50;;;48.72;;
26598;SDS011;14240;51.064;16.612;2023-09-30T23:13:49;64.40;;;47.83;;
26598;SDS011;14240;51.064;16.612;2023-09-30T23:16:15;60.60;;;48.53;;
26598;SDS011;14240;51.064;16.612;2023-09-30T23:18:40;72.78;;;53.53;;
26598;SDS011;14240;51.064;16.612;2023-09-30T23:21:08;71.25;;;50.97;;
26598;SDS011;14240;51.064;16.612;2023-09-30T23:23:34;47.67;;;35.13;;
26598;SDS011;14240;51.064;16.612;2023-09-30T23:26:01;27.38;;;14.73;;
26598;SDS011;14240;51.064;16.612;2023-09-30T23:28:31;20.50;;;11.32;;
26598;SDS011;14240;51.064;16.612;2023-09-30T23:30:59;18.38;;;9.32;;
26598;SDS011;14240;51.064;16.612;2023-09-30T23:33:29;16.88;;;8.05;;
26598;SDS011;14240;51.064;16.612;2023-09-30T23:35:56;16.63;;;6.05;;
26598;SDS011;14240;51.064;16.612;2023-09-30T23:38:21;20.15;;;5.95;;
26598;SDS011;14240;51.064;16.612;2023-09-30T23:40:47;12.90;;;5.63;;
26598;SDS011;14240;51.064;16.612;2023-09-30T23:43:14;15.07;;;6.60;;
26598;SDS011;14240;51.064;16.612;2023-09-30T23:45:40;74.82;;;26.42;;
26598;SDS011;14240;51.064;16.612;2023-09-30T23:48:08;129.95;;;41.92;;
26598;SDS011;14240;51.064;16.612;2023-09-30T23:50:34;180.95;;;59.85;;
26598;SDS011;14240;51.064;16.612;2023-09-30T23:53:00;76.88;;;27.38;;
26598;SDS011;14240;51.064;16.612;2023-09-30T23:55:29;25.23;;;8.48;;
26598;SDS011;14240;51.064;16.612;2023-09-30T23:57:55;16.95;;;6.40;;
